Time;durP1;ratioP1;P1;durP2;ratioP2;P2;SDS_P1;SDS_P2;PMS_P1;PMS_P2;Temp;Humidity;BMP_temperature;BMP_pressure;BME280_temperature;BME280_humidity;BME280_pressure;Samples;Min_cycle;Max_cycle;Signal;HPM_P1;HPM_P2
2023/06/08 00:00:39;;;;;;;11.67;5.57;;;;;;;16.26;73.22;101651.72;5015596;28;20030;-88
2023/06/08 00:03:05;;;;;;;13.80;5.63;;;;;;;16.22;74.04;101645.88;4999442;28;20050;-88
2023/06/08 00:05:31;;;;;;;16.67;5.72;;;;;;;16.16;73.77;101646.81;5015304;28;20081;-87
2023/06/08 00:07:57;;;;;;;11.67;5.57;;;;;;;16.11;73.83;101641.22;4999379;28;20088;-87
2023/06/08 00:10:23;;;;;;;12.20;5.38;;;;;;;16.06;74.00;101635.59;5015341;28;20454;-88
2023/06/08 00:12:48;;;;;;;12.20;5.93;;;;;;;16.03;74.06;101641.53;5015295;28;20088;-87
2023/06/08 00:15:14;;;;;;;14.95;5.63;;;;;;;15.96;74.14;101636.16;4999105;28;20124;-87
2023/06/08 00:17:39;;;;;;;12.30;5.93;;;;;;;15.92;74.53;101640.41;5016465;28;20061;-87
2023/06/08 00:20:08;;;;;;;10.93;5.13;;;;;;;15.86;75.56;101635.88;4983065;28;20061;-87
2023/06/08 00:22:36;;;;;;;17.42;5.60;;;;;;;15.82;75.30;101632.75;5015272;28;20390;-87
2023/06/08 00:25:03;;;;;;;13.15;5.65;;;;;;;15.78;75.20;101635.13;5015329;28;20026;-87
2023/06/08 00:27:29;;;;;;;13.15;6.05;;;;;;;15.76;75.92;101639.13;4999510;28;20029;-87
2023/06/08 00:29:55;;;;;;;14.90;5.90;;;;;;;15.69;75.93;101630.16;5014411;28;20041;-87
2023/06/08 00:32:20;;;;;;;14.63;5.70;;;;;;;15.63;75.96;101618.25;5016354;28;20033;-87
2023/06/08 00:34:46;;;;;;;16.80;5.87;;;;;;;15.65;76.10;101635.28;4998366;28;20033;-87
2023/06/08 00:37:11;;;;;;;14.90;6.03;;;;;;;15.68;76.72;101629.34;4998552;28;20049;-87
2023/06/08 00:39:36;;;;;;;16.42;5.97;;;;;;;15.67;76.55;101635.88;5015022;28;20045;-87
2023/06/08 00:42:03;;;;;;;14.90;6.20;;;;;;;15.67;76.63;101635.03;5014879;28;20385;-87
2023/06/08 00:44:28;;;;;;;20.00;6.13;;;;;;;15.65;76.69;101635.28;4999217;28;20113;-87
2023/06/08 00:46:54;;;;;;;19.83;6.07;;;;;;;15.66;76.93;101636.09;4982142;28;20054;-87
2023/06/08 00:49:20;;;;;;;12.13;5.87;;;;;;;15.64;76.90;101627.31;5013670;28;20034;-86
2023/06/08 00:51:46;;;;;;;14.37;5.67;;;;;;;15.64;77.06;101627.31;5014774;28;20424;-87
2023/06/08 00:54:14;;;;;;;16.30;6.28;;;;;;;15.58;77.27;101620.84;5015971;28;20037;-87
2023/06/08 00:56:40;;;;;;;15.35;5.95;;;;;;;15.59;77.60;101630.72;5014527;28;20044;-87
2023/06/08 00:59:09;;;;;;;14.70;6.13;;;;;;;15.54;77.75;101619.63;5014890;28;20038;-87
2023/06/08 01:01:35;;;;;;;15.10;6.30;;;;;;;15.51;78.16;101614.63;4998580;28;20113;-87
2023/06/08 01:04:07;;;;;;;14.00;6.13;;;;;;;15.51;78.88;101615.44;5015439;28;20049;-87
2023/06/08 01:06:45;;;;;;;17.70;7.00;;;;;;;15.52;78.78;101614.38;4999590;28;20508;-87
2023/06/08 01:09:28;;;;;;;19.65;7.05;;;;;;;15.53;78.87;101609.75;5016236;28;20030;-87
2023/06/08 01:12:18;;;;;;;16.10;7.25;;;;;;;15.49;78.22;101614.03;5015543;28;20405;-87
2023/06/08 01:15:02;;;;;;;18.75;6.82;;;;;;;15.47;78.18;101613.41;5015695;28;20116;-87
2023/06/08 01:17:35;;;;;;;18.87;6.63;;;;;;;15.40;79.58;101618.97;5014232;28;20076;-87
2023/06/08 01:20:08;;;;;;;13.27;6.60;;;;;;;15.37;79.22;101617.53;5014139;28;20374;-87
2023/06/08 01:22:58;;;;;;;13.13;6.38;;;;;;;15.34;79.44;101607.03;5014334;28;20037;-88
2023/06/08 01:25:30;;;;;;;13.23;6.68;;;;;;;15.29;80.01;101608.78;5014530;28;20469;-87
2023/06/08 01:28:00;;;;;;;15.43;6.47;;;;;;;15.24;79.85;101613.03;4998043;28;20121;-87
2023/06/08 01:30:26;;;;;;;18.17;6.60;;;;;;;15.20;81.06;101605.53;4997623;28;20037;-87
2023/06/08 01:32:51;;;;;;;18.17;7.72;;;;;;;15.16;81.10;101607.03;5013877;28;20045;-88
2023/06/08 01:35:17;;;;;;;16.07;6.43;;;;;;;15.08;81.12;101602.72;4996955;28;20485;-87
2023/06/08 01:37:50;;;;;;;15.60;6.95;;;;;;;15.01;81.44;101599.22;5013856;28;20026;-87
2023/06/08 01:40:33;;;;;;;18.40;6.53;;;;;;;15.00;81.21;101603.00;5015196;28;20029;-87
2023/06/08 01:43:00;;;;;;;14.43;6.40;;;;;;;14.96;82.05;101610.00;5015394;28;20034;-87
2023/06/08 01:45:29;;;;;;;14.13;6.75;;;;;;;14.91;82.54;101610.66;4997478;28;20030;-87
2023/06/08 01:48:02;;;;;;;16.02;6.70;;;;;;;14.83;82.61;101603.59;5014755;28;20072;-87
2023/06/08 01:50:28;;;;;;;13.10;6.93;;;;;;;14.79;83.13;101599.63;5014311;28;20470;-87
2023/06/08 01:52:55;;;;;;;16.03;7.30;;;;;;;14.75;83.64;101603.91;4997710;28;20149;-87
2023/06/08 01:55:22;;;;;;;15.13;6.35;;;;;;;14.72;83.62;101590.69;5013556;28;20026;-87
2023/06/08 01:57:47;;;;;;;17.42;7.07;;;;;;;14.67;83.66;101588.63;4997274;28;20112;-87
2023/06/08 02:00:17;;;;;;;14.27;7.00;;;;;;;14.65;83.69;101590.75;5013083;28;20116;-87
2023/06/08 02:02:44;;;;;;;14.60;6.82;;;;;;;14.60;84.23;101592.44;5014477;28;20033;-87
2023/06/08 02:05:10;;;;;;;20.45;7.72;;;;;;;14.55;84.48;101598.59;5012688;28;20429;-87
2023/06/08 02:07:37;;;;;;;16.35;7.10;;;;;;;14.50;85.24;101601.16;5013608;28;20080;-87
2023/06/08 02:10:05;;;;;;;15.10;7.20;;;;;;;14.42;85.29;101582.31;4996774;28;20061;-87
2023/06/08 02:12:30;;;;;;;14.63;6.43;;;;;;;14.43;85.40;101590.28;5013262;28;20030;-87
2023/06/08 02:14:56;;;;;;;16.93;7.07;;;;;;;14.41;85.79;101595.13;5013143;28;20041;-88
2023/06/08 02:17:26;;;;;;;13.98;6.82;;;;;;;14.37;86.56;101599.38;4997345;28;20471;-87
2023/06/08 02:19:52;;;;;;;18.57;7.30;;;;;;;14.33;86.15;101607.16;4982202;28;20026;-87
2023/06/08 02:22:17;;;;;;;14.75;6.93;;;;;;;14.28;86.58;101608.91;5013264;28;20030;-88
2023/06/08 02:24:43;;;;;;;16.93;7.27;;;;;;;14.26;86.31;101605.53;5013066;28;20533;-87
2023/06/08 02:27:08;;;;;;;14.80;6.70;;;;;;;14.20;86.78;101613.56;5012846;28;20033;-87
2023/06/08 02:29:35;;;;;;;16.30;7.18;;;;;;;14.17;86.95;101611.28;4980512;28;20088;-87
2023/06/08 02:32:01;;;;;;;13.75;7.88;;;;;;;14.11;87.29;101601.22;5012968;28;20056;-87
2023/06/08 02:34:26;;;;;;;14.37;6.83;;;;;;;14.13;87.63;101601.84;4996295;28;20530;-87
2023/06/08 02:36:52;;;;;;;19.90;7.40;;;;;;;14.07;87.36;101605.47;5014182;28;20038;-87
2023/06/08 02:39:17;;;;;;;15.77;7.68;;;;;;;14.03;87.70;101598.78;5013224;28;20121;-87
2023/06/08 02:41:42;;;;;;;16.57;7.57;;;;;;;13.98;87.91;101596.72;4980438;28;20037;-87
2023/06/08 02:44:08;;;;;;;14.17;7.40;;;;;;;13.96;88.14;101598.81;5012591;28;20033;-87
2023/06/08 02:46:33;;;;;;;16.10;7.77;;;;;;;13.91;88.30;101600.53;4980242;28;20034;-88
2023/06/08 02:49:00;;;;;;;18.90;7.57;;;;;;;13.88;88.54;101600.97;5013015;28;20467;-87
2023/06/08 02:51:26;;;;;;;13.27;7.60;;;;;;;13.85;89.27;101607.72;4996524;28;20129;-87
2023/06/08 02:53:51;;;;;;;14.50;7.55;;;;;;;13.82;89.30;101605.41;5013024;28;20037;-87
2023/06/08 02:56:17;;;;;;;15.17;7.90;;;;;;;13.75;89.64;101601.88;5012669;28;20042;-87
2023/06/08 02:58:46;;;;;;;16.53;7.77;;;;;;;13.71;89.78;101598.75;5012306;28;20042;-87
2023/06/08 03:01:14;;;;;;;18.35;7.55;;;;;;;13.65;90.46;101597.72;4996573;28;20060;-87
2023/06/08 03:03:44;;;;;;;18.58;7.90;;;;;;;13.66;90.20;101602.13;4996869;28;20437;-87
2023/06/08 03:06:12;;;;;;;15.40;7.72;;;;;;;13.62;90.11;101600.88;5012055;28;20475;-87
2023/06/08 03:08:38;;;;;;;21.27;8.40;;;;;;;13.60;90.48;101600.28;5013494;28;20037;-87
2023/06/08 03:11:04;;;;;;;22.70;8.63;;;;;;;13.53;90.91;101602.19;4996038;28;20041;-87
2023/06/08 03:13:29;;;;;;;18.60;8.40;;;;;;;13.52;91.32;101597.78;5015052;28;20060;-87
2023/06/08 03:15:55;;;;;;;16.25;8.00;;;;;;;13.48;91.59;101593.84;4984288;28;20030;-87
2023/06/08 03:18:22;;;;;;;15.80;7.72;;;;;;;13.46;91.61;101590.47;5000441;28;20041;-87
2023/06/08 03:20:51;;;;;;;18.93;8.53;;;;;;;13.42;91.54;101589.22;5016280;28;20026;-87
2023/06/08 03:23:19;;;;;;;19.60;7.65;;;;;;;13.37;92.15;101594.50;5000717;28;20045;-87
2023/06/08 03:25:51;;;;;;;17.35;7.88;;;;;;;13.35;92.17;101602.91;5017369;28;20030;-87
2023/06/08 03:28:17;;;;;;;20.02;7.75;;;;;;;13.33;92.49;101605.81;5017594;28;20049;-87
2023/06/08 03:30:42;;;;;;;18.13;7.93;;;;;;;13.30;92.74;101603.53;4999713;28;20041;-87
2023/06/08 03:33:08;;;;;;;18.73;8.00;;;;;;;13.31;92.87;101602.44;5017465;28;20053;-87
2023/06/08 03:35:33;;;;;;;15.60;7.80;;;;;;;13.31;92.88;101609.81;4999552;28;20265;-86
2023/06/08 03:37:58;;;;;;;22.87;8.90;;;;;;;13.29;92.90;101609.19;5016124;28;20036;-87
2023/06/08 03:40:24;;;;;;;19.03;7.70;;;;;;;13.29;92.98;101606.47;5015325;28;20429;-87
2023/06/08 03:42:50;;;;;;;19.75;7.50;;;;;;;13.28;93.50;101607.50;4996670;28;20030;-87
2023/06/08 03:45:19;;;;;;;20.90;8.03;;;;;;;13.25;93.54;101606.03;4964800;28;20037;-87
2023/06/08 03:47:45;;;;;;;15.75;8.50;;;;;;;13.23;93.60;101608.16;4996863;28;20121;-87
2023/06/08 03:50:14;;;;;;;16.40;7.60;;;;;;;13.19;93.53;101597.91;4997196;28;20480;-87
2023/06/08 03:52:40;;;;;;;19.23;8.07;;;;;;;13.20;93.80;101607.72;4964694;28;20482;-87
2023/06/08 03:55:08;;;;;;;20.27;8.07;;;;;;;13.19;93.53;101606.91;4996260;28;20367;-87
2023/06/08 03:57:35;;;;;;;17.30;7.65;;;;;;;13.22;93.75;101603.75;4997050;28;20046;-87
2023/06/08 04:00:01;;;;;;;16.20;7.93;;;;;;;13.26;93.93;101607.72;4997348;28;20121;-86
2023/06/08 04:02:26;;;;;;;16.70;8.73;;;;;;;13.33;93.70;101602.22;4979884;28;20117;-87
2023/06/08 04:04:53;;;;;;;17.98;8.30;;;;;;;13.41;93.36;101590.31;4995167;28;20058;-87
2023/06/08 04:07:20;;;;;;;17.73;8.30;;;;;;;13.46;93.08;101591.34;4979941;28;20045;-86
2023/06/08 04:09:46;;;;;;;20.48;8.23;;;;;;;13.47;92.81;101594.88;4980016;28;20037;-86
2023/06/08 04:12:11;;;;;;;15.93;8.15;;;;;;;13.48;92.61;101589.22;4997033;28;20026;-87
2023/06/08 04:14:37;;;;;;;17.60;7.63;;;;;;;13.56;92.36;101595.47;4995940;28;20027;-87
2023/06/08 04:17:02;;;;;;;20.00;7.73;;;;;;;13.54;91.83;101594.84;4996908;28;20105;-87
2023/06/08 04:19:28;;;;;;;15.23;8.05;;;;;;;13.47;92.15;101592.16;4979569;28;20076;-86
2023/06/08 04:21:56;;;;;;;18.10;8.83;;;;;;;13.41;92.39;101591.13;4995774;28;20035;-87
2023/06/08 04:24:33;;;;;;;16.52;8.90;;;;;;;13.41;92.27;101587.59;4964075;28;20038;-87
2023/06/08 04:26:58;;;;;;;18.90;8.63;;;;;;;13.45;92.60;101589.66;4995869;28;20077;-86
2023/06/08 04:29:24;;;;;;;19.67;7.67;;;;;;;13.54;92.39;101589.38;4995711;28;20570;-86
2023/06/08 04:31:52;;;;;;;22.47;9.40;;;;;;;13.55;92.13;101589.16;4995461;28;20030;-87
2023/06/08 04:34:17;;;;;;;18.45;8.30;;;;;;;13.51;91.83;101586.06;4996181;28;20053;-87
2023/06/08 04:36:43;;;;;;;19.17;8.43;;;;;;;13.55;91.79;101593.81;4963059;28;20027;-87
2023/06/08 04:39:09;;;;;;;18.88;8.40;;;;;;;13.54;91.71;101592.97;4995076;28;20519;-87
2023/06/08 04:41:35;;;;;;;21.87;8.00;;;;;;;13.57;91.20;101591.69;4996643;28;20475;-87
2023/06/08 04:44:02;;;;;;;18.90;8.85;;;;;;;13.59;91.64;101586.88;4996431;28;20179;-87
2023/06/08 04:46:33;;;;;;;18.02;8.63;;;;;;;13.58;91.78;101585.19;4995450;28;20066;-87
2023/06/08 04:48:59;;;;;;;21.70;8.27;;;;;;;13.57;91.18;101586.22;4995185;28;20034;-87
2023/06/08 04:51:29;;;;;;;17.27;7.93;;;;;;;13.61;91.87;101593.78;4992619;28;20034;-87
2023/06/08 04:54:03;;;;;;;15.55;8.35;;;;;;;13.63;91.21;101591.66;4998864;28;20030;-87
2023/06/08 04:56:33;;;;;;;19.88;8.63;;;;;;;13.66;90.93;101593.13;5014327;28;20041;-87
2023/06/08 04:58:59;;;;;;;14.35;8.13;;;;;;;13.67;90.62;101589.31;4998911;28;20060;-87
2023/06/08 05:01:25;;;;;;;18.95;9.10;;;;;;;13.69;90.32;101581.78;5014536;28;20030;-87
2023/06/08 05:03:50;;;;;;;18.90;8.60;;;;;;;13.70;90.13;101586.19;4981801;28;20241;-87
2023/06/08 05:06:15;;;;;;;19.23;9.07;;;;;;;13.71;90.38;101587.84;4997834;28;20037;-87
2023/06/08 05:08:41;;;;;;;15.73;8.70;;;;;;;13.76;89.78;101588.03;5015906;28;20029;-87
2023/06/08 05:11:07;;;;;;;21.85;9.05;;;;;;;13.78;89.70;101585.09;5014291;28;20025;-86
2023/06/08 05:13:32;;;;;;;19.33;8.47;;;;;;;13.78;89.29;101585.09;5014228;28;20037;-87
2023/06/08 05:15:58;;;;;;;20.23;8.63;;;;;;;13.80;90.54;101581.09;5014105;28;20026;-87
2023/06/08 05:18:28;;;;;;;18.73;8.85;;;;;;;13.80;89.43;101577.50;5014527;28;20092;-87
2023/06/08 05:20:54;;;;;;;17.75;9.25;;;;;;;13.85;89.24;101580.44;5015162;28;20033;-85
2023/06/08 05:23:19;;;;;;;16.90;8.40;;;;;;;13.90;89.19;101577.03;5014133;28;20038;-86
2023/06/08 05:25:45;;;;;;;18.27;8.23;;;;;;;13.97;88.56;101577.84;4981288;28;20543;-86
2023/06/08 05:28:11;;;;;;;20.13;8.77;;;;;;;14.08;88.42;101581.75;4997533;28;20034;-86
2023/06/08 05:30:36;;;;;;;15.17;8.10;;;;;;;14.14;88.67;101583.56;5013668;28;20121;-86
2023/06/08 05:33:01;;;;;;;21.02;9.43;;;;;;;14.20;87.28;101585.41;4997762;28;20058;-87
2023/06/08 05:35:27;;;;;;;17.63;8.13;;;;;;;14.22;86.90;101580.59;5013186;28;20038;-88
2023/06/08 05:37:53;;;;;;;16.53;9.23;;;;;;;14.29;86.72;101577.78;5013807;28;20084;-91
2023/06/08 05:40:18;;;;;;;16.73;8.80;;;;;;;14.32;86.18;101582.81;5014426;28;20049;-88
2023/06/08 05:42:44;;;;;;;18.27;8.73;;;;;;;14.39;86.68;101576.25;5014706;28;20105;-88
2023/06/08 05:45:11;;;;;;;17.58;8.95;;;;;;;14.45;86.11;101576.41;4997021;28;20070;-89
2023/06/08 05:47:37;;;;;;;17.10;9.20;;;;;;;14.46;85.99;101565.25;5013903;28;20080;-93
2023/06/08 05:50:03;;;;;;;20.07;9.07;;;;;;;14.50;85.84;101561.03;5013580;28;20433;-89
2023/06/08 05:52:29;;;;;;;19.08;9.93;;;;;;;14.56;85.94;101564.75;5014742;28;20079;-90
2023/06/08 05:54:55;;;;;;;18.58;8.52;;;;;;;14.61;84.19;101559.47;5014638;28;20026;-88
2023/06/08 05:57:20;;;;;;;21.43;9.10;;;;;;;14.77;83.74;101562.69;5013287;28;20037;-88
2023/06/08 05:59:46;;;;;;;20.87;9.23;;;;;;;14.71;83.45;101558.97;5014810;28;20054;-88
2023/06/08 06:02:13;;;;;;;16.98;9.02;;;;;;;14.74;82.91;101558.53;4996831;28;20033;-88
2023/06/08 06:04:41;;;;;;;19.07;9.40;;;;;;;14.84;83.63;101571.66;5013079;28;20128;-90
2023/06/08 06:07:09;;;;;;;19.52;9.90;;;;;;;15.00;82.76;101575.66;5013232;28;20030;-88
2023/06/08 06:09:34;;;;;;;18.23;9.20;;;;;;;15.08;81.95;101562.53;5013300;28;20444;-92
2023/06/08 06:12:01;;;;;;;18.05;9.05;;;;;;;15.26;81.09;101563.59;4995782;28;20121;-91
2023/06/08 06:14:35;;;;;;;19.83;10.03;;;;;;;15.31;81.08;101568.38;5014037;28;20057;-90
2023/06/08 06:17:00;;;;;;;19.73;9.55;;;;;;;15.48;80.17;101565.88;5013005;28;20057;-89
2023/06/08 06:19:26;;;;;;;18.47;9.27;;;;;;;15.50;80.09;101550.91;4996548;28;20467;-91
2023/06/08 06:21:51;;;;;;;19.15;9.27;;;;;;;15.60;79.31;101553.91;4996136;28;20574;-91
2023/06/08 06:24:17;;;;;;;18.20;9.47;;;;;;;15.65;79.45;101568.78;4997535;28;20040;-90
2023/06/08 06:26:42;;;;;;;20.73;9.40;;;;;;;15.72;78.95;101558.56;4996524;28;20072;-90
2023/06/08 06:29:07;;;;;;;25.10;10.37;;;;;;;15.77;78.74;101562.28;5013101;28;20398;-90
2023/06/08 06:31:33;;;;;;;16.88;9.57;;;;;;;15.78;78.31;101560.41;5012676;28;20664;-91
2023/06/08 06:33:58;;;;;;;21.47;10.37;;;;;;;15.87;78.64;101561.78;5013443;28;20116;-91
2023/06/08 06:36:26;;;;;;;19.43;9.63;;;;;;;15.92;78.86;101574.75;5013221;28;20385;-91
2023/06/08 06:38:52;;;;;;;24.52;11.70;;;;;;;15.95;78.86;101574.28;5014862;28;20079;-91
2023/06/08 06:41:17;;;;;;;22.77;9.93;;;;;;;16.03;78.26;101581.31;5012647;28;20069;-91
2023/06/08 06:43:42;;;;;;;21.43;10.53;;;;;;;16.09;77.92;101585.84;4995858;28;20388;-90
2023/06/08 06:46:08;;;;;;;17.73;9.77;;;;;;;16.14;77.32;101584.06;5013691;28;20068;-91
2023/06/08 06:48:33;;;;;;;21.97;10.43;;;;;;;16.17;77.43;101580.03;5013545;28;20712;-90
2023/06/08 06:50:59;;;;;;;22.20;11.27;;;;;;;16.31;76.72;101584.25;5013864;28;20037;-90
2023/06/08 06:53:25;;;;;;;22.85;9.93;;;;;;;16.31;77.02;101580.66;5013871;28;20439;-90
2023/06/08 06:55:50;;;;;;;17.53;10.17;;;;;;;16.39;76.71;101580.31;4979731;28;20030;-90
2023/06/08 06:58:16;;;;;;;22.80;11.10;;;;;;;16.42;76.71;101588.06;5013004;28;20038;-90
2023/06/08 07:00:41;;;;;;;25.20;10.02;;;;;;;16.51;76.83;101582.25;5012229;28;20113;-91
2023/06/08 07:03:07;;;;;;;19.53;10.30;;;;;;;16.52;75.88;101582.00;4995959;28;20037;-91
2023/06/08 07:05:34;;;;;;;22.15;10.13;;;;;;;16.51;76.15;101579.50;5013427;28;20048;-91
2023/06/08 07:07:59;;;;;;;22.17;10.98;;;;;;;16.56;76.16;101585.91;5012846;28;20041;-89
2023/06/08 07:10:25;;;;;;;20.27;10.60;;;;;;;16.62;76.06;101584.13;4996002;28;20470;-90
2023/06/08 07:12:51;;;;;;;21.53;10.70;;;;;;;16.68;75.84;101591.38;4996667;28;20475;-92
2023/06/08 07:15:17;;;;;;;23.83;11.30;;;;;;;16.69;76.12;101590.31;5014112;28;20076;-92
2023/06/08 07:17:44;;;;;;;25.05;11.43;;;;;;;16.71;76.33;101587.34;4996442;28;20025;-90
2023/06/08 07:20:10;;;;;;;22.67;11.10;;;;;;;16.72;76.10;101580.81;4996262;28;20386;-91
2023/06/08 07:22:36;;;;;;;21.25;10.77;;;;;;;16.83;76.48;101594.50;4996375;28;20120;-90
2023/06/08 07:25:05;;;;;;;22.23;11.20;;;;;;;16.80;75.84;101574.94;5012251;28;20470;-90
2023/06/08 07:27:30;;;;;;;27.88;12.25;;;;;;;16.84;75.42;101587.09;5012016;28;20030;-90
2023/06/08 07:29:56;;;;;;;24.70;11.03;;;;;;;16.92;75.44;101585.94;4995789;28;20041;-90
2023/06/08 07:32:22;;;;;;;22.70;11.20;;;;;;;16.93;76.38;101577.50;5012314;28;20030;-90
2023/06/08 07:34:47;;;;;;;23.70;11.63;;;;;;;16.99;75.70;101578.41;5011538;28;20038;-90
2023/06/08 07:37:13;;;;;;;17.10;10.27;;;;;;;17.07;74.86;101579.97;5013322;28;20038;-90
2023/06/08 07:39:39;;;;;;;20.15;11.13;;;;;;;17.17;74.89;101588.41;5013530;28;20029;-90
2023/06/08 07:42:05;;;;;;;18.75;10.40;;;;;;;17.15;74.67;101574.91;5012064;28;20120;-90
2023/06/08 07:44:31;;;;;;;24.80;11.80;;;;;;;17.18;74.72;101573.63;5012056;28;20042;-91
2023/06/08 07:46:57;;;;;;;20.95;11.30;;;;;;;17.26;74.80;101572.38;5013380;28;20033;-90
2023/06/08 07:49:23;;;;;;;21.50;11.90;;;;;;;17.31;74.89;101575.25;4995888;28;20439;-90
2023/06/08 07:51:49;;;;;;;29.63;12.10;;;;;;;17.40;74.57;101575.72;4995850;28;20041;-90
2023/06/08 07:54:19;;;;;;;19.88;11.35;;;;;;;17.49;74.30;101572.34;5012142;28;20055;-90
2023/06/08 07:56:47;;;;;;;20.73;11.60;;;;;;;17.56;74.08;101576.84;5012906;28;20026;-90
2023/06/08 07:59:13;;;;;;;24.90;11.55;;;;;;;17.55;74.29;101567.78;5014569;28;20077;-90
2023/06/08 08:01:38;;;;;;;19.40;11.37;;;;;;;17.67;73.73;101570.47;5015985;28;20029;-91
2023/06/08 08:04:03;;;;;;;22.80;11.73;;;;;;;17.73;73.29;101568.66;5022915;28;20075;-89
2023/06/08 08:06:29;;;;;;;23.63;11.40;;;;;;;17.81;73.99;101571.84;5018171;28;20037;-88
2023/06/08 08:08:54;;;;;;;22.47;11.43;;;;;;;17.86;73.52;101571.09;5002092;28;20117;-88
2023/06/08 08:11:20;;;;;;;23.65;11.50;;;;;;;17.94;73.85;101572.63;5002339;28;20029;-89
2023/06/08 08:13:45;;;;;;;26.23;12.60;;;;;;;17.96;73.55;101568.56;5018227;28;20044;-89
2023/06/08 08:16:11;;;;;;;21.80;12.03;;;;;;;18.02;73.67;101566.75;5018563;28;20036;-90
2023/06/08 08:18:36;;;;;;;24.17;12.30;;;;;;;18.12;73.43;101560.59;5008900;28;20128;-89
2023/06/08 08:21:02;;;;;;;21.47;11.47;;;;;;;18.23;73.52;101563.28;5010198;28;20121;-90
2023/06/08 08:23:27;;;;;;;21.93;11.43;;;;;;;18.35;73.16;101563.19;4999515;28;20529;-90
2023/06/08 08:25:52;;;;;;;17.70;10.63;;;;;;;18.44;72.19;101554.50;4998481;28;20034;-89
2023/06/08 08:28:18;;;;;;;21.20;11.17;;;;;;;18.48;70.57;101550.19;4998227;28;20034;-90
2023/06/08 08:30:43;;;;;;;20.70;10.75;;;;;;;18.59;70.74;101569.31;4982299;28;20034;-89
2023/06/08 08:33:09;;;;;;;20.37;10.77;;;;;;;18.64;69.58;101560.31;4965987;28;20026;-90
2023/06/08 08:35:34;;;;;;;19.93;10.70;;;;;;;18.76;69.72;101562.94;4981985;28;20050;-89
2023/06/08 08:38:00;;;;;;;18.98;11.45;;;;;;;18.87;69.66;101562.06;5013120;28;20478;-90
2023/06/08 08:40:28;;;;;;;18.87;11.20;;;;;;;19.00;69.87;101563.63;5014225;28;20129;-91
2023/06/08 08:43:01;;;;;;;17.92;10.57;;;;;;;19.15;69.40;101556.63;4996450;28;20034;-89
2023/06/08 08:45:31;;;;;;;20.42;11.77;;;;;;;19.24;68.76;101557.84;5000768;28;20034;-90
2023/06/08 08:47:57;;;;;;;19.73;11.00;;;;;;;19.29;68.51;101552.41;4998030;28;20076;-88
2023/06/08 08:50:25;;;;;;;17.98;10.65;;;;;;;19.39;67.50;101560.78;4998315;28;20045;-88
2023/06/08 08:52:53;;;;;;;20.80;10.95;;;;;;;19.47;67.59;101562.22;5014399;28;20041;-89
2023/06/08 08:55:27;;;;;;;19.77;11.38;;;;;;;19.52;67.87;101550.47;4997009;28;20056;-90
2023/06/08 08:58:01;;;;;;;17.55;11.40;;;;;;;19.63;67.41;101553.09;4984102;28;20030;-89
2023/06/08 09:00:27;;;;;;;20.80;10.87;;;;;;;19.68;67.59;101538.53;4998002;28;20474;-90
2023/06/08 09:02:53;;;;;;;17.95;10.70;;;;;;;19.84;66.54;101550.53;4993950;28;20034;-89
2023/06/08 09:05:19;;;;;;;20.95;10.57;;;;;;;20.01;66.01;101547.69;4998160;28;20065;-89
2023/06/08 09:07:44;;;;;;;20.90;11.37;;;;;;;20.01;65.72;101544.91;5011373;28;20033;-89
2023/06/08 09:10:25;;;;;;;18.77;10.17;;;;;;;20.19;66.25;101554.72;5010959;28;20093;-89
2023/06/08 09:12:53;;;;;;;19.73;9.93;;;;;;;20.36;65.21;101546.31;5008170;28;20760;-88
2023/06/08 09:15:28;;;;;;;16.38;9.98;;;;;;;20.61;65.11;101551.16;5006622;28;20127;-90
2023/06/08 09:17:58;;;;;;;18.10;9.70;;;;;;;20.74;63.76;101547.13;4999883;28;20034;-89
2023/06/08 09:20:31;;;;;;;18.30;9.43;;;;;;;20.95;63.41;101550.84;4999608;28;20122;-89
2023/06/08 09:22:57;;;;;;;13.18;9.00;;;;;;;21.06;62.58;101546.19;4994596;28;20035;-91
2023/06/08 09:25:37;;;;;;;15.33;9.13;;;;;;;21.26;62.20;101544.59;4994615;28;20026;-92
2023/06/08 09:28:26;;;;;;;15.82;9.60;;;;;;;21.38;62.12;101542.44;4979640;28;20144;-95
2023/06/08 09:30:53;;;;;;;17.95;9.15;;;;;;;21.48;60.77;101527.81;4977828;28;20376;-91
2023/06/08 09:33:27;;;;;;;19.38;8.57;;;;;;;21.60;60.07;101538.66;4995916;28;20037;-92
2023/06/08 09:35:59;;;;;;;12.57;8.25;;;;;;;21.72;59.89;101533.72;4993854;28;20502;-92
2023/06/08 09:38:26;;;;;;;16.10;8.57;;;;;;;21.86;59.44;101534.81;4994085;28;20034;-92
2023/06/08 09:41:21;;;;;;;15.00;8.70;;;;;;;21.98;59.22;101525.44;4978306;28;20118;-92
2023/06/08 09:43:48;;;;;;;13.50;7.28;;;;;;;22.23;57.48;101532.88;4994487;28;20036;-92
2023/06/08 09:46:36;;;;;;;16.00;8.35;;;;;;;22.35;58.01;101527.09;4994179;28;20538;-92
2023/06/08 09:49:11;;;;;;;13.02;7.50;;;;;;;22.51;56.50;101525.97;4995330;28;20038;-92
2023/06/08 09:51:40;;;;;;;12.60;7.50;;;;;;;22.63;55.82;101519.31;4994955;28;20041;-93
2023/06/08 09:54:07;;;;;;;13.70;7.40;;;;;;;22.76;55.67;101515.94;4994334;28;20117;-91
2023/06/08 09:56:36;;;;;;;14.00;7.80;;;;;;;23.00;55.06;101516.16;4995799;28;20089;-93
2023/06/08 09:59:10;;;;;;;15.98;8.80;;;;;;;23.18;54.36;101517.47;4995161;28;20030;-92
2023/06/08 10:01:42;;;;;;;12.80;8.50;;;;;;;23.28;55.02;101508.28;4994105;28;20042;-93
2023/06/08 10:04:31;;;;;;;13.43;8.97;;;;;;;23.46;55.00;101515.13;4993456;28;20467;-92
2023/06/08 10:07:02;;;;;;;13.82;8.20;;;;;;;23.72;53.73;101506.63;4993849;28;20041;-91
2023/06/08 10:09:29;;;;;;;16.90;8.43;;;;;;;23.77;52.57;101503.81;4993756;28;20026;-92
2023/06/08 10:11:56;;;;;;;15.70;8.05;;;;;;;23.91;52.98;101507.59;4993637;28;20142;-91
2023/06/08 10:14:25;;;;;;;11.98;6.78;;;;;;;24.09;51.92;101514.38;4993230;28;20121;-89
2023/06/08 10:16:51;;;;;;;9.77;6.23;;;;;;;24.31;51.11;101511.13;4994560;28;20126;-88
2023/06/08 10:19:18;;;;;;;10.80;6.80;;;;;;;24.52;50.78;101506.19;4993230;28;20125;-88
2023/06/08 10:21:45;;;;;;;15.23;7.40;;;;;;;24.74;49.53;101499.31;4993318;28;20061;-87
2023/06/08 10:24:12;;;;;;;14.40;7.03;;;;;;;24.83;50.16;101505.03;4993594;28;20427;-88
2023/06/08 10:26:37;;;;;;;13.15;6.35;;;;;;;24.97;49.64;101500.44;4977081;28;20076;-88
2023/06/08 10:29:10;;;;;;;9.10;5.87;;;;;;;25.18;49.10;101508.47;4994179;28;20031;-88
2023/06/08 10:31:40;;;;;;;11.10;5.78;;;;;;;25.36;48.71;101504.94;4976901;28;20088;-90
2023/06/08 10:34:14;;;;;;;11.07;5.37;;;;;;;25.46;48.04;101500.34;4992873;28;20046;-88
2023/06/08 10:36:42;;;;;;;7.35;4.90;;;;;;;25.51;45.49;101490.00;4992820;28;20030;-88
2023/06/08 10:39:14;;;;;;;5.70;4.63;;;;;;;25.49;46.18;101492.22;4961465;28;20030;-88
2023/06/08 10:41:40;;;;;;;11.40;4.93;;;;;;;25.59;46.38;101493.22;4977372;28;20035;-89
2023/06/08 10:44:22;;;;;;;6.47;4.47;;;;;;;25.69;45.61;101481.94;4993136;28;20359;-89
2023/06/08 10:46:55;;;;;;;8.57;5.10;;;;;;;25.86;45.95;101478.59;4993338;28;20022;-89
2023/06/08 10:49:21;;;;;;;10.13;5.40;;;;;;;26.09;45.38;101479.63;4992785;28;20117;-89
2023/06/08 10:51:46;;;;;;;8.63;5.23;;;;;;;26.18;44.48;101475.00;4960598;28;20117;-90
2023/06/08 10:54:22;;;;;;;9.13;5.50;;;;;;;26.37;45.09;101472.13;4994151;28;20034;-90
2023/06/08 10:56:52;;;;;;;11.57;5.60;;;;;;;26.58;43.71;101474.53;4993286;28;20034;-89
2023/06/08 10:59:33;;;;;;;8.97;5.17;;;;;;;26.78;43.57;101482.47;4992749;28;20045;-87
2023/06/08 11:02:01;;;;;;;8.13;5.20;;;;;;;26.87;42.15;101470.59;4994185;28;20076;-87
2023/06/08 11:04:31;;;;;;;8.38;4.93;;;;;;;26.86;42.50;101469.78;4980860;28;20045;-90
2023/06/08 11:07:00;;;;;;;9.93;5.65;;;;;;;26.92;41.69;101464.94;5012397;28;20025;-86
2023/06/08 11:09:28;;;;;;;9.77;5.30;;;;;;;27.13;41.37;101459.72;4995569;28;20034;-85
2023/06/08 11:11:54;;;;;;;6.13;5.37;;;;;;;27.48;41.39;101462.84;5013617;28;20033;-86
2023/06/08 11:14:20;;;;;;;12.77;6.50;;;;;;;27.68;40.21;101469.06;4979760;28;20471;-86
2023/06/08 11:16:55;;;;;;;12.70;6.37;;;;;;;28.16;40.67;101460.03;5013396;28;20030;-86
2023/06/08 11:19:24;;;;;;;10.80;6.68;;;;;;;29.09;37.66;101454.63;5012235;28;20029;-86